This is the latest recevied weather packets stored in our database for station/object VU3KEB-1. If no packets are shown the sender has not sent any weather packets the latest 10 day(s).
| Time | Temp. | Humidity | Pressure | Rain* | Wind** | Luminosity | Snow |
|---|---|---|---|---|---|---|---|
| 1788410543 | 26.11° C | 63% | 1035.1 hPa | - | - | - | - |
| 1788409327 | 25.56° C | 63% | 1035.1 hPa | - | - | - | - |
| 1788408112 | 25° C | 71% | 1035.2 hPa | - | - | - | - |
| 1788406895 | 24.44° C | 71% | 1035.2 hPa | - | - | - | - |
| 1788356055 | 25° C | 78% | 1033 hPa | - | - | - | - |
| 1788354839 | 25.56° C | 76% | 1031.8 hPa | - | - | - | - |
| 1788352409 | 25.56° C | 76% | 1031.8 hPa | - | - | - | - |
| 1788351193 | 26.67° C | 74% | 1031.3 hPa | - | - | - | - |
| 1788349979 | 26.67° C | 74% | 1031.3 hPa | - | - | - | - |
| 1788348764 | 26.67° C | 74% | 1031.3 hPa | - | - | - | - |
| 1788347549 | 26.67° C | 69% | 1031.1 hPa | - | - | - | - |
| 1788346335 | 27.78° C | 69% | 1031.1 hPa | - | - | - | - |
| 1788345119 | 28.89° C | 69% | 1031.1 hPa | - | - | - | - |
| 1788343903 | 31.11° C | 47% | 1031.2 hPa | - | - | - | - |
| 1788342688 | 31.67° C | 47% | 1031.2 hPa | - | - | - | - |
| 1788341473 | 31.67° C | 47% | 1031.2 hPa | - | - | - | - |
| 1788340259 | 31.11° C | 49% | 1032.1 hPa | - | - | - | - |
| 1788339045 | 31.11° C | 49% | 1032.1 hPa | - | - | - | - |
| 1788337830 | 31.11° C | 49% | 1032.1 hPa | - | - | - | - |
| 1788336614 | 30.56° C | 50% | 1032.8 hPa | - | - | - | - |
| 1788335398 | 30.56° C | 50% | 1032.8 hPa | - | - | - | - |
| 1788334184 | 30.56° C | 50% | 1032.8 hPa | - | - | - | - |
| 1788332969 | 30.56° C | 51% | 1033.7 hPa | - | - | - | - |
| 1788331755 | 30° C | 49% | 1034.1 hPa | - | - | - | - |
| 1788330541 | 29.44° C | 49% | 1034.1 hPa | - | - | - | - |
* Rain since midnight (hover to see other rain measurements)
** Current wind speed in m/s (hover to see current wind gust speed)